createdAt,value
2018-07-17T00:00:10.479Z,7.10
2018-07-17T00:02:39.416Z,6.42
2018-07-17T00:05:08.966Z,7.97
2018-07-17T00:07:38.846Z,6.20
2018-07-17T00:10:08.045Z,7.17
2018-07-17T00:12:36.735Z,6.83
2018-07-17T00:15:05.427Z,6.90
2018-07-17T00:17:35.896Z,7.37
2018-07-17T00:20:04.706Z,7.07
2018-07-17T00:22:34.294Z,6.70
2018-07-17T00:25:03.073Z,7.30
2018-07-17T00:27:31.654Z,7.07
2018-07-17T00:30:00.206Z,6.80
2018-07-17T00:32:28.732Z,7.13
2018-07-17T00:34:57.175Z,6.37
2018-07-17T00:37:25.656Z,6.70
2018-07-17T00:39:54.184Z,6.53
2018-07-17T00:42:22.719Z,7.43
2018-07-17T00:44:51.231Z,7.37
2018-07-17T00:47:19.742Z,7.20
2018-07-17T00:49:48.293Z,6.77
2018-07-17T00:52:16.840Z,8.13
2018-07-17T00:54:45.551Z,7.30
2018-07-17T00:57:14.064Z,7.80
2018-07-17T00:59:42.700Z,7.90
2018-07-17T01:02:16.493Z,7.30
2018-07-17T01:04:54.052Z,7.33
2018-07-17T01:07:27.818Z,7.87
2018-07-17T01:10:04.002Z,7.23
2018-07-17T01:12:31.629Z,7.90
2018-07-17T01:15:06.924Z,8.27
2018-07-17T01:17:36.392Z,8.13
2018-07-17T01:20:05.070Z,8.20
2018-07-17T01:22:33.584Z,8.23
2018-07-17T01:25:02.351Z,8.90
2018-07-17T01:27:30.863Z,8.60
2018-07-17T01:29:59.431Z,8.70
2018-07-17T01:32:27.909Z,7.60
2018-07-17T01:34:57.068Z,9.07
2018-07-17T01:37:25.604Z,9.10
2018-07-17T01:39:54.128Z,8.40
2018-07-17T01:42:22.622Z,8.97
2018-07-17T01:44:53.198Z,8.90
2018-07-17T01:47:21.686Z,9.40
2018-07-17T01:49:50.171Z,9.25
2018-07-17T01:52:18.745Z,9.65
2018-07-17T01:54:47.668Z,9.50
2018-07-17T01:57:16.186Z,9.10
2018-07-17T01:59:44.673Z,9.53
2018-07-17T02:02:14.175Z,8.28
2018-07-17T02:04:43.307Z,9.47
2018-07-17T02:07:11.799Z,9.37
2018-07-17T02:09:40.287Z,8.60
2018-07-17T02:12:08.811Z,7.92
2018-07-17T02:14:37.461Z,8.33
2018-07-17T02:17:06.259Z,9.10
2018-07-17T02:19:34.784Z,8.60
2018-07-17T02:22:03.301Z,8.47
2018-07-17T02:24:31.858Z,9.90
2018-07-17T02:27:00.472Z,8.87
2018-07-17T02:29:28.958Z,9.47
2018-07-17T02:31:57.487Z,9.37
2018-07-17T02:34:29.788Z,9.00
2018-07-17T02:36:58.312Z,9.45
2018-07-17T02:39:28.576Z,9.20
2018-07-17T02:41:57.710Z,10.10
2018-07-17T02:44:26.236Z,10.28
2018-07-17T02:46:54.717Z,9.23
2018-07-17T02:49:23.626Z,10.00
2018-07-17T02:51:52.107Z,9.40
2018-07-17T02:54:22.120Z,9.47
2018-07-17T02:56:50.604Z,9.67
2018-07-17T02:59:19.129Z,10.60
2018-07-17T03:01:49.108Z,9.85
2018-07-17T03:04:17.620Z,10.53
2018-07-17T03:06:46.100Z,10.00
2018-07-17T03:09:16.673Z,9.50
2018-07-17T03:11:46.317Z,8.20
2018-07-17T03:14:14.851Z,8.97
2018-07-17T03:16:43.452Z,9.17
2018-07-17T03:19:12.007Z,10.13
2018-07-17T03:21:40.527Z,9.85
2018-07-17T03:24:11.294Z,10.30
2018-07-17T03:26:42.240Z,10.50
2018-07-17T03:29:10.786Z,10.40
2018-07-17T03:31:39.312Z,10.40
2018-07-17T03:34:07.782Z,11.93
2018-07-17T03:36:36.311Z,10.67
2018-07-17T03:39:06.627Z,10.57
2018-07-17T03:41:35.210Z,10.47
2018-07-17T03:44:03.805Z,10.08
2018-07-17T03:46:32.902Z,12.40
2018-07-17T03:49:01.395Z,11.30
2018-07-17T03:51:29.873Z,10.98
2018-07-17T03:53:58.400Z,10.80
2018-07-17T03:56:26.891Z,12.47
2018-07-17T03:58:55.527Z,11.43
2018-07-17T04:01:24.290Z,11.83
2018-07-17T04:03:52.969Z,11.20
2018-07-17T04:06:21.431Z,11.40
2018-07-17T04:08:50.157Z,10.83
2018-07-17T04:11:18.676Z,11.68
2018-07-17T04:13:47.236Z,11.77
2018-07-17T04:16:16.391Z,11.70
2018-07-17T04:18:45.009Z,11.80
2018-07-17T04:21:13.612Z,12.17
2018-07-17T04:23:42.667Z,12.00
2018-07-17T04:26:11.256Z,12.00
2018-07-17T04:28:39.784Z,12.30
2018-07-17T04:31:08.275Z,12.20
2018-07-17T04:33:36.779Z,12.50
2018-07-17T04:36:05.513Z,12.70
2018-07-17T04:38:34.116Z,12.30
2018-07-17T04:41:02.759Z,11.50
2018-07-17T04:43:31.291Z,11.00
2018-07-17T04:45:59.793Z,10.57
2018-07-17T04:48:28.687Z,10.47
2018-07-17T04:50:57.162Z,11.40
2018-07-17T04:53:25.661Z,12.35
2018-07-17T04:55:54.215Z,10.50
2018-07-17T04:58:22.728Z,11.43
2018-07-17T05:00:51.190Z,11.37
2018-07-17T05:03:19.696Z,11.80
2018-07-17T05:05:48.308Z,11.53
2018-07-17T05:08:16.871Z,12.03
2018-07-17T05:10:45.388Z,11.13
2018-07-17T05:13:13.919Z,11.40
2018-07-17T05:15:42.423Z,12.03
2018-07-17T05:18:11.415Z,11.47
2018-07-17T05:20:40.843Z,12.30
2018-07-17T05:23:09.311Z,11.80
2018-07-17T05:25:37.856Z,13.00
2018-07-17T05:28:06.427Z,13.00
2018-07-17T05:30:34.921Z,12.00
2018-07-17T05:33:03.678Z,12.70
2018-07-17T05:35:32.200Z,12.53
2018-07-17T05:38:00.900Z,11.90
2018-07-17T05:40:29.537Z,11.70
2018-07-17T05:42:58.063Z,11.90
2018-07-17T05:45:26.622Z,11.53
2018-07-17T05:47:55.118Z,12.57
2018-07-17T05:50:23.591Z,12.97
2018-07-17T05:52:52.064Z,12.37
2018-07-17T05:55:20.608Z,11.75
2018-07-17T05:57:49.251Z,12.00
2018-07-17T06:00:17.781Z,12.28
2018-07-17T06:02:46.316Z,11.90
2018-07-17T06:05:15.016Z,13.03
2018-07-17T06:07:43.567Z,12.30
2018-07-17T06:10:12.121Z,12.30
2018-07-17T06:12:40.714Z,12.47
2018-07-17T06:15:09.328Z,11.90
2018-07-17T06:17:37.916Z,12.47
2018-07-17T06:20:07.880Z,13.22
2018-07-17T06:22:36.540Z,12.67
2018-07-17T06:25:06.792Z,12.30
2018-07-17T06:27:35.278Z,11.40
2018-07-17T06:30:04.607Z,12.25
2018-07-17T06:32:33.140Z,11.83
2018-07-17T06:35:01.736Z,12.23
2018-07-17T06:37:30.256Z,11.77
2018-07-17T06:39:59.117Z,13.27
2018-07-17T06:42:27.716Z,13.47
2018-07-17T06:44:56.152Z,14.07
2018-07-17T06:47:24.624Z,13.37
2018-07-17T06:49:53.078Z,14.10
2018-07-17T06:52:22.824Z,12.53
2018-07-17T06:54:51.309Z,12.83
2018-07-17T06:57:20.879Z,13.05
2018-07-17T06:59:49.343Z,12.23
2018-07-17T07:02:18.195Z,13.00
2018-07-17T07:04:46.742Z,13.60
2018-07-17T07:07:15.352Z,14.03
2018-07-17T07:09:44.794Z,12.63
2018-07-17T07:12:13.254Z,12.73
2018-07-17T07:14:42.258Z,13.93
2018-07-17T07:17:10.908Z,11.80
2018-07-17T07:19:39.382Z,14.07
2018-07-17T07:22:07.958Z,13.10
2018-07-17T07:24:36.508Z,14.73
2018-07-17T07:27:05.075Z,13.53
2018-07-17T07:29:33.622Z,13.60
2018-07-17T07:32:02.146Z,13.17
2018-07-17T07:34:30.708Z,13.03
2018-07-17T07:36:59.244Z,13.57
2018-07-17T07:39:27.726Z,14.00
2018-07-17T07:41:56.259Z,13.90
2018-07-17T07:44:24.785Z,12.55
2018-07-17T07:46:53.278Z,12.93
2018-07-17T07:49:22.248Z,14.80
2018-07-17T07:51:50.827Z,14.80
2018-07-17T07:54:19.430Z,13.30
2018-07-17T07:56:48.637Z,13.93
2018-07-17T07:59:17.124Z,12.40
2018-07-17T08:01:45.674Z,15.43
2018-07-17T08:04:14.432Z,12.50
2018-07-17T08:06:42.978Z,12.27
2018-07-17T08:09:11.487Z,14.23
2018-07-17T08:11:40.047Z,14.73
2018-07-17T08:14:08.645Z,13.60
2018-07-17T08:16:37.192Z,14.20
2018-07-17T08:19:05.684Z,13.33
2018-07-17T08:21:34.178Z,13.40
2018-07-17T08:24:02.674Z,12.37
2018-07-17T08:26:31.240Z,13.50
2018-07-17T08:28:59.754Z,13.22
2018-07-17T08:31:28.271Z,12.70
2018-07-17T08:33:56.867Z,10.67
2018-07-17T08:36:25.474Z,11.83
2018-07-17T08:38:54.023Z,11.17
2018-07-17T08:41:22.567Z,10.55
2018-07-17T08:43:51.120Z,11.60
2018-07-17T08:48:50.686Z,10.35
2018-07-17T08:51:19.477Z,9.63
2018-07-17T08:53:48.300Z,10.77
2018-07-17T08:56:17.602Z,10.57
2018-07-17T08:58:46.077Z,9.93
2018-07-17T09:01:14.527Z,10.47
2018-07-17T09:03:43.101Z,9.57
2018-07-17T09:06:11.592Z,9.30
2018-07-17T09:08:40.212Z,9.23
2018-07-17T09:11:08.796Z,8.40
2018-07-17T09:13:37.471Z,10.13
2018-07-17T09:16:06.115Z,8.70
2018-07-17T09:18:35.364Z,8.97
2018-07-17T09:21:03.856Z,8.00
2018-07-17T09:23:32.452Z,8.10
2018-07-17T09:26:02.313Z,9.63
2018-07-17T09:28:31.040Z,9.20
2018-07-17T09:31:00.952Z,8.67
2018-07-17T09:33:31.102Z,7.63
2018-07-17T09:36:00.288Z,8.20
2018-07-17T09:38:29.142Z,7.67
2018-07-17T09:40:57.612Z,6.60
2018-07-17T09:43:26.066Z,6.90
2018-07-17T09:45:54.534Z,7.15
2018-07-17T09:48:24.820Z,6.30
2018-07-17T09:50:56.429Z,7.00
2018-07-17T09:53:26.215Z,6.50
2018-07-17T09:55:55.137Z,6.57
2018-07-17T09:58:26.211Z,6.50
2018-07-17T10:01:01.175Z,5.93
2018-07-17T10:03:29.710Z,6.40
2018-07-17T10:05:58.729Z,5.73
2018-07-17T10:08:31.560Z,5.63
2018-07-17T10:11:00.836Z,4.90
2018-07-17T10:13:29.851Z,5.87
2018-07-17T10:15:58.393Z,5.40
2018-07-17T10:18:27.003Z,5.10
2018-07-17T10:20:56.592Z,5.47
2018-07-17T10:23:25.184Z,4.90
2018-07-17T10:25:53.679Z,5.47
2018-07-17T10:28:22.284Z,5.73
2018-07-17T10:30:50.806Z,5.20
2018-07-17T10:33:19.392Z,5.67
2018-07-17T10:35:47.999Z,5.30
2018-07-17T10:38:16.470Z,4.72
2018-07-17T10:40:45.040Z,5.17
2018-07-17T10:43:13.618Z,4.80
2018-07-17T10:45:42.185Z,4.85
2018-07-17T10:48:10.669Z,5.00
2018-07-17T10:50:39.710Z,5.13
2018-07-17T10:53:08.351Z,4.62
2018-07-17T10:55:36.841Z,5.20
2018-07-17T10:58:05.611Z,4.67
2018-07-17T11:00:34.115Z,5.13
2018-07-17T11:03:02.709Z,5.20
2018-07-17T11:05:31.329Z,5.40
2018-07-17T11:08:02.378Z,4.90
2018-07-17T11:10:31.754Z,4.90
2018-07-17T11:13:00.268Z,4.65
2018-07-17T11:15:28.777Z,4.35
2018-07-17T11:17:57.335Z,5.40
2018-07-17T11:20:25.842Z,4.37
2018-07-17T11:22:55.276Z,4.13
2018-07-17T11:25:23.961Z,5.00
2018-07-17T11:27:53.077Z,4.80
2018-07-17T11:30:22.035Z,5.07
2018-07-17T11:32:51.398Z,4.40
2018-07-17T11:35:20.224Z,4.03
2018-07-17T11:37:49.451Z,4.10
2018-07-17T11:40:22.122Z,4.40
2018-07-17T11:42:50.863Z,4.23
2018-07-17T11:45:19.619Z,4.10
2018-07-17T11:47:48.144Z,3.80
2018-07-17T11:50:16.729Z,3.70
2018-07-17T11:52:45.282Z,3.77
2018-07-17T11:55:13.853Z,4.40
2018-07-17T11:57:42.515Z,4.13
2018-07-17T12:00:11.134Z,3.50
2018-07-17T12:02:39.694Z,3.70
2018-07-17T12:05:08.280Z,4.13
2018-07-17T12:07:36.926Z,4.00
2018-07-17T12:10:05.503Z,3.97
2018-07-17T12:12:33.988Z,3.27
2018-07-17T12:15:02.531Z,3.90
2018-07-17T12:17:31.025Z,3.37
2018-07-17T12:19:59.933Z,3.27
2018-07-17T12:22:28.415Z,2.93
2018-07-17T12:24:56.920Z,3.37
2018-07-17T12:27:25.419Z,2.80
2018-07-17T12:29:53.916Z,4.17
2018-07-17T12:32:22.436Z,3.70
2018-07-17T12:34:51.177Z,3.30
2018-07-17T12:38:50.560Z,3.47
2018-07-17T12:41:19.196Z,3.20
2018-07-17T12:43:47.813Z,3.70
2018-07-17T12:46:16.468Z,3.60
2018-07-17T12:48:44.947Z,3.87
2018-07-17T12:51:13.581Z,3.87
2018-07-17T12:53:42.083Z,3.40
2018-07-17T12:56:10.661Z,4.00
2018-07-17T12:58:39.184Z,3.37
2018-07-17T13:01:07.659Z,3.13
2018-07-17T13:03:36.160Z,3.63
2018-07-17T13:06:04.673Z,3.00
2018-07-17T13:08:33.191Z,3.30
2018-07-17T13:11:02.178Z,3.30
2018-07-17T13:13:30.762Z,4.13
2018-07-17T13:15:59.334Z,3.40
2018-07-17T13:18:27.808Z,2.90
2018-07-17T13:20:56.295Z,3.37
2018-07-17T13:23:24.853Z,3.53
2018-07-17T13:25:53.470Z,3.07
2018-07-17T13:28:22.175Z,3.30
2018-07-17T13:30:51.151Z,3.30
2018-07-17T13:33:19.784Z,2.73
2018-07-17T13:35:48.359Z,2.87
2018-07-17T13:38:16.919Z,2.77
2018-07-17T13:40:45.467Z,2.80
2018-07-17T13:43:14.682Z,2.60
2018-07-17T13:45:43.561Z,2.53
2018-07-17T13:48:13.281Z,2.73
2018-07-17T13:50:41.818Z,2.80
2018-07-17T13:53:11.044Z,3.20
2018-07-17T13:55:39.622Z,3.20
2018-07-17T13:58:07.867Z,2.90
2018-07-17T14:00:36.351Z,3.13
2018-07-17T14:03:04.836Z,3.27
2018-07-17T14:05:36.726Z,3.10
2018-07-17T14:08:08.631Z,3.60
2018-07-17T14:10:37.220Z,3.70
2018-07-17T14:13:06.081Z,3.33
2018-07-17T14:15:38.213Z,2.80
2018-07-17T14:18:06.761Z,3.30
2018-07-17T14:20:35.365Z,3.00
2018-07-17T14:23:03.892Z,3.10
2018-07-17T14:25:33.130Z,3.60
2018-07-17T14:28:02.025Z,3.77
2018-07-17T14:30:30.524Z,3.47
2018-07-17T14:32:59.030Z,3.67
2018-07-17T14:35:27.534Z,3.80
2018-07-17T14:37:56.155Z,3.90
2018-07-17T14:40:25.036Z,3.90
2018-07-17T14:42:53.580Z,3.60
2018-07-17T14:45:22.148Z,3.80
2018-07-17T14:47:50.767Z,4.03
2018-07-17T14:50:20.266Z,3.80
2018-07-17T14:52:49.611Z,4.10
2018-07-17T14:55:19.356Z,4.50
2018-07-17T14:57:49.296Z,3.93
2018-07-17T15:00:17.887Z,4.00
2018-07-17T15:02:50.781Z,3.60
2018-07-17T15:05:21.246Z,4.10
2018-07-17T15:07:51.343Z,3.93
2018-07-17T15:10:21.242Z,3.85
2018-07-17T15:12:49.813Z,4.40
2018-07-17T15:15:22.003Z,4.12
2018-07-17T15:17:51.480Z,3.80
2018-07-17T15:20:21.279Z,3.40
2018-07-17T15:22:51.658Z,3.90
2018-07-17T15:25:21.471Z,4.20
2018-07-17T15:27:51.383Z,3.63
2018-07-17T15:30:19.843Z,3.70
2018-07-17T15:32:48.440Z,3.80
2018-07-17T15:35:22.128Z,3.83
2018-07-17T15:37:51.903Z,3.77
2018-07-17T15:40:21.953Z,3.57
2018-07-17T15:42:51.767Z,3.90
2018-07-17T15:45:20.450Z,4.13
2018-07-17T15:47:49.021Z,4.50
2018-07-17T15:50:17.670Z,4.40
2018-07-17T15:52:46.659Z,3.90
2018-07-17T15:55:15.296Z,3.73
2018-07-17T15:57:43.838Z,3.20
2018-07-17T16:00:12.381Z,3.67
2018-07-17T16:02:41.440Z,3.55
2018-07-17T16:05:12.076Z,3.90
2018-07-17T16:07:40.609Z,4.23
2018-07-17T16:10:09.305Z,4.03
2018-07-17T16:12:38.192Z,4.47
2018-07-17T16:15:07.022Z,4.10
2018-07-17T16:17:36.073Z,4.20
2018-07-17T16:20:05.276Z,4.33
2018-07-17T16:22:33.784Z,3.43
2018-07-17T16:25:02.226Z,3.50
2018-07-17T16:27:30.783Z,3.60
2018-07-17T16:29:59.335Z,3.15
2018-07-17T16:32:30.039Z,2.97
2018-07-17T16:34:58.615Z,2.97
2018-07-17T16:37:27.363Z,2.90
2018-07-17T16:39:55.991Z,2.73
2018-07-17T16:42:24.583Z,2.97
2018-07-17T16:44:56.238Z,2.50
2018-07-17T16:47:24.814Z,2.85
2018-07-17T16:49:53.340Z,2.70
2018-07-17T16:52:21.853Z,3.20
2018-07-17T16:54:50.403Z,2.77
2018-07-17T16:57:18.916Z,3.07
2018-07-17T16:59:47.536Z,3.37
2018-07-17T17:02:16.095Z,3.37
2018-07-17T17:04:44.592Z,3.22
2018-07-17T17:07:14.982Z,2.63
2018-07-17T17:09:43.513Z,3.23
2018-07-17T17:12:12.930Z,3.55
2018-07-17T17:14:41.400Z,3.07
2018-07-17T17:17:10.070Z,2.93
2018-07-17T17:19:38.623Z,3.10
2018-07-17T17:22:07.160Z,3.20
2018-07-17T17:24:36.066Z,2.70
2018-07-17T17:27:04.849Z,3.00
2018-07-17T17:29:33.396Z,2.77
2018-07-17T17:32:01.937Z,2.63
2018-07-17T17:34:31.089Z,3.05
2018-07-17T17:36:59.601Z,3.00
2018-07-17T17:39:28.240Z,2.70
2018-07-17T17:41:56.758Z,2.77
2018-07-17T17:44:25.304Z,2.60
2018-07-17T17:46:53.817Z,2.73
2018-07-17T17:49:22.352Z,2.90
2018-07-17T17:51:50.870Z,2.83
2018-07-17T17:54:19.446Z,2.70
2018-07-17T17:56:48.048Z,2.50
2018-07-17T17:59:17.039Z,2.30
2018-07-17T18:01:46.121Z,2.43
2018-07-17T18:04:14.591Z,4.53
2018-07-17T18:06:43.172Z,3.47
2018-07-17T18:09:11.685Z,3.63
2018-07-17T18:11:40.199Z,4.10
2018-07-17T18:14:10.715Z,4.65
2018-07-17T18:16:39.191Z,4.83
2018-07-17T18:19:07.794Z,6.23
2018-07-17T18:21:36.423Z,4.13
2018-07-17T18:24:04.966Z,5.17
2018-07-17T18:26:33.493Z,4.40
2018-07-17T18:29:02.107Z,2.20
2018-07-17T18:31:30.715Z,2.40
2018-07-17T18:33:59.291Z,2.10
2018-07-17T18:36:27.855Z,2.17
2018-07-17T18:38:56.398Z,2.20
2018-07-17T18:41:25.080Z,2.30
2018-07-17T18:43:53.682Z,2.42
2018-07-17T18:46:22.196Z,2.20
2018-07-17T18:48:52.094Z,2.33
2018-07-17T18:53:54.619Z,1.90
2018-07-17T18:56:23.186Z,2.00
2018-07-17T18:58:51.742Z,2.17
2018-07-17T19:01:20.304Z,2.22
2018-07-17T19:03:48.954Z,2.70
2018-07-17T19:06:18.479Z,2.13
2018-07-17T19:08:46.993Z,1.93
2018-07-17T19:11:15.627Z,2.27
2018-07-17T19:13:45.756Z,2.50
2018-07-17T19:16:14.258Z,2.50
2018-07-17T19:18:42.783Z,2.30
2018-07-17T19:21:11.303Z,3.00
2018-07-17T19:23:41.471Z,2.43
2018-07-17T19:26:16.336Z,2.63
2018-07-17T19:28:45.800Z,2.97
2018-07-17T19:31:14.378Z,3.20
2018-07-17T19:33:42.908Z,2.63
2018-07-17T19:36:11.396Z,3.87
2018-07-17T19:38:40.667Z,2.20
2018-07-17T19:41:09.332Z,2.40
2018-07-17T19:43:38.484Z,2.43
2018-07-17T19:46:11.294Z,3.10
2018-07-17T19:48:40.422Z,2.90
2018-07-17T19:51:09.864Z,2.63
2018-07-17T19:53:38.396Z,3.00
2018-07-17T19:56:07.037Z,3.73
2018-07-17T19:58:35.579Z,3.47
2018-07-17T20:01:04.199Z,3.00
2018-07-17T20:03:32.712Z,3.30
2018-07-17T20:06:01.308Z,4.17
2018-07-17T20:08:29.906Z,3.08
2018-07-17T20:10:58.412Z,3.37
2018-07-17T20:13:26.940Z,3.47
2018-07-17T20:15:55.771Z,3.35
2018-07-17T20:18:24.885Z,3.37
2018-07-17T20:20:53.415Z,3.83
2018-07-17T20:23:22.933Z,3.83
2018-07-17T20:25:52.581Z,3.90
2018-07-17T20:28:24.633Z,4.00
2018-07-17T20:30:54.852Z,3.40
2018-07-17T20:33:23.491Z,3.30
2018-07-17T20:35:52.165Z,3.98
2018-07-17T20:38:20.714Z,4.10
2018-07-17T20:40:49.329Z,4.00
2018-07-17T20:43:17.851Z,4.37
2018-07-17T20:45:46.917Z,3.47
2018-07-17T20:48:15.659Z,3.53
2018-07-17T20:50:44.239Z,3.67
2018-07-17T20:53:12.889Z,3.53
2018-07-17T20:55:41.471Z,3.70
2018-07-17T20:58:12.546Z,4.07
2018-07-17T21:00:41.182Z,3.50
2018-07-17T21:03:09.753Z,4.40
2018-07-17T21:05:38.289Z,3.13
2018-07-17T21:08:06.979Z,3.80
2018-07-17T21:10:35.628Z,3.50
2018-07-17T21:13:05.278Z,3.73
2018-07-17T21:15:33.751Z,3.45
2018-07-17T21:18:02.263Z,3.37
2018-07-17T21:20:30.814Z,3.30
2018-07-17T21:22:59.369Z,2.97
2018-07-17T21:25:28.016Z,4.00
2018-07-17T21:27:56.520Z,3.30
2018-07-17T21:30:25.073Z,3.50
2018-07-17T21:32:54.563Z,4.30
2018-07-17T21:35:23.107Z,3.37
2018-07-17T21:37:51.744Z,3.47
2018-07-17T21:40:20.329Z,2.97
2018-07-17T21:42:49.721Z,3.80
2018-07-17T21:45:20.115Z,3.20
2018-07-17T21:47:50.199Z,2.92
2018-07-17T21:50:21.625Z,3.73
2018-07-17T21:52:51.252Z,3.30
2018-07-17T21:55:22.605Z,3.85
2018-07-17T21:57:51.125Z,3.10
2018-07-17T22:00:24.977Z,3.25
2018-07-17T22:02:57.698Z,2.73
2018-07-17T22:05:26.412Z,3.27
2018-07-17T22:08:07.991Z,3.30
2018-07-17T22:10:36.758Z,3.53
2018-07-17T22:13:07.647Z,3.43
2018-07-17T22:15:36.221Z,3.40
2018-07-17T22:18:09.759Z,2.90
2018-07-17T22:20:39.232Z,2.90
2018-07-17T22:23:07.807Z,2.90
2018-07-17T22:25:37.114Z,3.17
2018-07-17T22:28:06.062Z,3.57
2018-07-17T22:30:34.512Z,3.10
2018-07-17T22:33:02.960Z,2.87
2018-07-17T22:35:31.497Z,3.30
2018-07-17T22:38:00.045Z,3.23
2018-07-17T22:40:28.635Z,3.37
2018-07-17T22:42:57.131Z,3.12
2018-07-17T22:45:26.103Z,3.65
2018-07-17T22:47:55.155Z,3.10
2018-07-17T22:50:24.648Z,3.40
2018-07-17T22:52:53.172Z,2.93
2018-07-17T22:55:21.673Z,3.23
2018-07-17T22:57:50.163Z,3.50
2018-07-17T23:00:18.696Z,3.30
2018-07-17T23:02:47.196Z,3.17
2018-07-17T23:05:16.325Z,2.98
2018-07-17T23:07:46.899Z,3.00
2018-07-17T23:10:17.228Z,3.10
2018-07-17T23:12:47.065Z,2.93
2018-07-17T23:15:15.761Z,3.17
2018-07-17T23:17:44.240Z,2.90
2018-07-17T23:20:12.739Z,3.05
2018-07-17T23:22:49.860Z,3.50
2018-07-17T23:25:18.308Z,3.23
2018-07-17T23:27:46.987Z,3.00
2018-07-17T23:30:15.797Z,3.20
2018-07-17T23:32:44.302Z,3.30
2018-07-17T23:35:12.801Z,2.53
2018-07-17T23:37:41.378Z,2.80
2018-07-17T23:40:09.863Z,3.20
2018-07-17T23:42:38.591Z,3.23
2018-07-17T23:45:07.312Z,3.17
2018-07-17T23:47:35.912Z,3.37
2018-07-17T23:50:04.553Z,3.45
2018-07-17T23:52:33.086Z,3.10
2018-07-17T23:55:01.540Z,3.10
2018-07-17T23:57:30.095Z,3.53
2018-07-17T23:59:58.729Z,4.12
